createdAt,value
2023-05-02T00:00:16.159Z,19.13
2023-05-02T00:05:08.370Z,19.07
2023-05-02T00:10:03.096Z,19.50
2023-05-02T00:14:55.015Z,20.07
2023-05-02T00:19:47.151Z,20.90
2023-05-02T00:24:38.956Z,20.50
2023-05-02T00:29:31.193Z,20.90
2023-05-02T00:34:23.041Z,21.00
2023-05-02T00:39:14.806Z,21.70
2023-05-02T00:44:06.704Z,22.17
2023-05-02T00:48:58.467Z,21.43
2023-05-02T00:53:50.991Z,21.87
2023-05-02T00:58:44.083Z,21.40
2023-05-02T01:03:51.385Z,20.87
2023-05-02T01:09:24.654Z,21.03
2023-05-02T01:14:18.176Z,20.77
2023-05-02T01:19:20.026Z,21.73
2023-05-02T01:24:25.143Z,22.20
2023-05-02T01:29:20.817Z,23.20
2023-05-02T01:34:12.831Z,24.77
2023-05-02T01:39:09.424Z,33.65
2023-05-02T01:44:03.406Z,33.73
2023-05-02T01:48:57.316Z,35.15
2023-05-02T01:53:50.411Z,34.73
2023-05-02T01:58:42.959Z,33.78
2023-05-02T02:03:34.613Z,34.65
2023-05-02T02:08:26.696Z,37.03
2023-05-02T02:13:32.262Z,35.60
2023-05-02T02:18:27.708Z,35.83
2023-05-02T02:23:22.269Z,34.87
2023-05-02T02:28:14.004Z,35.23
2023-05-02T02:33:06.374Z,34.20
2023-05-02T02:38:29.265Z,34.53
2023-05-02T02:43:26.150Z,33.42
2023-05-02T02:48:46.076Z,32.00
2023-05-02T02:54:01.133Z,29.60
2023-05-02T02:59:04.049Z,28.85
2023-05-02T03:03:57.375Z,30.10
2023-05-02T03:08:49.127Z,29.55
2023-05-02T03:13:44.456Z,29.25
2023-05-02T03:18:40.973Z,30.38
2023-05-02T03:23:33.324Z,28.83
2023-05-02T03:28:25.087Z,28.47
2023-05-02T03:33:18.046Z,28.00
2023-05-02T03:38:11.693Z,27.98
2023-05-02T03:43:03.809Z,24.50
2023-05-02T03:47:57.928Z,25.15
2023-05-02T03:52:50.562Z,26.60
2023-05-02T03:57:47.292Z,25.47
2023-05-02T04:02:39.342Z,24.77
2023-05-02T04:07:35.679Z,25.40
2023-05-02T04:12:29.992Z,25.92
2023-05-02T04:17:21.869Z,26.90
2023-05-02T04:22:14.970Z,25.80
2023-05-02T04:27:14.492Z,27.10
2023-05-02T04:32:07.787Z,28.60
2023-05-02T04:37:01.555Z,26.85
2023-05-02T04:41:53.708Z,26.95
2023-05-02T04:46:47.709Z,27.47
2023-05-02T04:51:39.536Z,26.50
2023-05-02T04:56:32.112Z,25.65
2023-05-02T05:01:24.996Z,24.57
2023-05-02T05:06:17.021Z,24.08
2023-05-02T05:11:10.136Z,22.97
2023-05-02T05:16:02.939Z,22.98
2023-05-02T05:20:57.595Z,22.98
2023-05-02T05:25:49.393Z,21.83
2023-05-02T05:30:42.676Z,21.40
2023-05-02T05:35:37.518Z,21.93
2023-05-02T05:40:29.384Z,22.13
2023-05-02T05:45:23.335Z,20.90
2023-05-02T05:50:15.188Z,21.63
2023-05-02T05:55:08.147Z,20.63
2023-05-02T06:00:00.649Z,19.50
2023-05-02T06:04:53.046Z,19.77
2023-05-02T06:09:48.380Z,20.27
2023-05-02T06:14:41.428Z,19.17
2023-05-02T06:19:34.231Z,19.55
2023-05-02T06:24:26.281Z,19.02
2023-05-02T06:29:18.018Z,19.83
2023-05-02T06:34:09.785Z,19.33
2023-05-02T06:39:01.564Z,20.20
2023-05-02T06:43:53.382Z,19.30
2023-05-02T06:48:45.329Z,19.50
2023-05-02T06:53:37.003Z,18.50
2023-05-02T06:58:30.290Z,17.83
2023-05-02T07:03:22.233Z,17.90
2023-05-02T07:08:13.981Z,16.00
2023-05-02T07:13:05.769Z,16.30
2023-05-02T07:17:57.477Z,16.80
2023-05-02T07:22:49.684Z,14.20
2023-05-02T07:27:41.591Z,13.30
2023-05-02T07:32:33.431Z,13.38
2023-05-02T07:37:25.233Z,13.03
2023-05-02T07:42:17.022Z,11.50
2023-05-02T07:47:09.238Z,11.93
2023-05-02T07:52:01.111Z,14.43
2023-05-02T07:56:52.887Z,20.15
2023-05-02T08:01:45.097Z,18.83
2023-05-02T08:06:37.210Z,18.33
2023-05-02T08:11:28.994Z,17.27
2023-05-02T08:16:20.998Z,17.58
2023-05-02T08:21:12.768Z,13.00
2023-05-02T08:26:05.139Z,10.67
2023-05-02T08:30:58.753Z,6.22
2023-05-02T08:35:50.522Z,4.93
2023-05-02T08:40:43.406Z,4.43
2023-05-02T08:45:39.853Z,4.15
2023-05-02T08:50:31.792Z,2.40
2023-05-02T08:55:27.906Z,2.58
2023-05-02T09:00:19.786Z,3.13
2023-05-02T09:05:12.248Z,2.92
2023-05-02T09:10:05.132Z,2.88
2023-05-02T09:15:16.848Z,2.85
2023-05-02T09:20:12.082Z,6.55
2023-05-02T09:25:05.877Z,7.93
2023-05-02T09:30:25.223Z,8.20
2023-05-02T09:35:26.891Z,7.43
2023-05-02T09:40:19.497Z,7.77
2023-05-02T09:45:26.353Z,9.20
2023-05-02T09:50:38.003Z,7.75
2023-05-02T09:55:30.600Z,7.25
2023-05-02T10:00:22.360Z,8.82
2023-05-02T10:05:14.318Z,8.48
2023-05-02T10:10:08.515Z,7.18
2023-05-02T10:15:04.196Z,6.23
2023-05-02T10:20:07.239Z,6.43
2023-05-02T10:25:00.748Z,6.75
2023-05-02T10:29:54.552Z,9.23
2023-05-02T10:34:47.741Z,7.00
2023-05-02T10:39:39.641Z,6.25
2023-05-02T10:44:40.237Z,25.30
2023-05-02T10:49:32.055Z,4.22
2023-05-02T10:54:24.844Z,4.17
2023-05-02T10:59:35.190Z,4.23
2023-05-02T11:05:00.543Z,5.43
2023-05-02T11:09:52.486Z,6.50
2023-05-02T11:14:47.668Z,5.80
2023-05-02T11:19:45.482Z,6.00
2023-05-02T11:24:41.523Z,5.70
2023-05-02T11:29:53.552Z,5.70
2023-05-02T11:34:45.763Z,6.00
2023-05-02T11:39:37.517Z,5.70
2023-05-02T11:44:29.272Z,5.35
2023-05-02T11:49:21.167Z,5.22
2023-05-02T11:54:20.708Z,5.50
2023-05-02T11:59:12.483Z,5.63
2023-05-02T12:04:07.031Z,4.73
2023-05-02T12:09:09.966Z,4.07
2023-05-02T12:14:02.492Z,3.67
2023-05-02T12:18:56.815Z,3.17
2023-05-02T12:23:48.860Z,3.13
2023-05-02T12:28:57.167Z,3.78
2023-05-02T12:33:50.907Z,5.37
2023-05-02T12:38:51.180Z,5.05
2023-05-02T12:43:51.146Z,4.60
2023-05-02T12:48:44.851Z,28.87
2023-05-02T12:53:44.401Z,4.05
2023-05-02T12:58:47.361Z,4.72
2023-05-02T13:03:39.437Z,3.50
2023-05-02T13:08:33.138Z,3.60
2023-05-02T13:13:24.867Z,3.58
2023-05-02T13:18:16.678Z,4.13
2023-05-02T13:23:08.535Z,3.30
2023-05-02T13:28:00.407Z,4.03
2023-05-02T13:32:52.591Z,3.80
2023-05-02T13:37:44.582Z,3.58
2023-05-02T13:42:36.658Z,3.70
2023-05-02T13:47:28.765Z,3.50
2023-05-02T13:52:20.624Z,3.72
2023-05-02T13:57:12.666Z,3.90
2023-05-02T14:02:04.646Z,3.73
2023-05-02T14:06:56.582Z,3.70
2023-05-02T14:11:49.126Z,3.80
2023-05-02T14:16:41.346Z,4.00
2023-05-02T14:21:33.165Z,3.73
2023-05-02T14:26:24.969Z,3.40
2023-05-02T14:31:16.824Z,3.55
2023-05-02T14:36:08.952Z,4.63
2023-05-02T14:41:02.789Z,3.40
2023-05-02T14:45:54.672Z,3.70
2023-05-02T14:50:46.495Z,3.78
2023-05-02T14:55:39.570Z,3.75
2023-05-02T15:00:34.815Z,3.27
2023-05-02T15:05:26.763Z,3.53
2023-05-02T15:10:18.593Z,4.30
2023-05-02T15:15:11.354Z,3.80
2023-05-02T15:20:04.744Z,4.20
2023-05-02T15:24:56.943Z,4.43
2023-05-02T15:29:48.726Z,4.13
2023-05-02T15:34:40.575Z,3.87
2023-05-02T15:39:32.637Z,3.50
2023-05-02T15:44:26.419Z,4.47
2023-05-02T15:49:18.236Z,3.25
2023-05-02T15:54:09.945Z,2.97
2023-05-02T15:59:01.811Z,3.80
2023-05-02T16:03:53.618Z,3.67
2023-05-02T16:08:45.507Z,3.65
2023-05-02T16:13:37.420Z,3.38
2023-05-02T16:18:29.213Z,3.67
2023-05-02T16:23:22.162Z,4.13
2023-05-02T16:28:13.935Z,3.83
2023-05-02T16:33:05.852Z,3.75
2023-05-02T16:37:57.608Z,3.65
2023-05-02T16:42:49.316Z,3.70
2023-05-02T16:47:41.179Z,3.95
2023-05-02T16:52:33.111Z,5.07
2023-05-02T16:57:24.851Z,4.10
2023-05-02T17:02:17.927Z,4.93
2023-05-02T17:07:12.166Z,4.40
2023-05-02T17:12:04.420Z,4.25
2023-05-02T17:28:57.562Z,4.70
2023-05-02T17:33:49.302Z,4.63
2023-05-02T17:38:42.008Z,4.20
2023-05-02T17:43:33.771Z,4.43
2023-05-02T17:48:25.585Z,4.60
2023-05-02T17:53:17.398Z,4.30
2023-05-02T17:58:09.272Z,4.40
2023-05-02T18:03:01.047Z,4.15
2023-05-02T18:07:53.256Z,4.03
2023-05-02T18:12:45.061Z,4.03
2023-05-02T18:17:39.712Z,3.92
2023-05-02T18:22:32.557Z,4.22
2023-05-02T18:27:25.533Z,3.80
2023-05-02T18:32:17.252Z,4.18
2023-05-02T18:37:09.792Z,3.90
2023-05-02T18:42:03.295Z,4.30
2023-05-02T18:46:55.042Z,4.30
2023-05-02T18:51:46.923Z,4.50
2023-05-02T18:56:41.578Z,5.18
2023-05-02T19:01:33.478Z,5.57
2023-05-02T19:06:26.204Z,4.50
2023-05-02T19:11:19.562Z,3.80
2023-05-02T19:16:13.667Z,3.85
2023-05-02T19:21:13.806Z,3.78
2023-05-02T19:26:10.730Z,4.10
2023-05-02T19:31:07.903Z,4.00
2023-05-02T19:35:59.600Z,4.40
2023-05-02T19:40:51.317Z,4.30
2023-05-02T19:45:43.140Z,4.18
2023-05-02T19:50:34.831Z,4.38
2023-05-02T19:55:26.510Z,4.77
2023-05-02T20:00:18.512Z,5.05
2023-05-02T20:05:10.509Z,4.82
2023-05-02T20:10:02.500Z,5.00
2023-05-02T20:14:54.856Z,5.30
2023-05-02T20:19:46.572Z,5.63
2023-05-02T20:24:38.295Z,5.50
2023-05-02T20:29:30.032Z,5.80
2023-05-02T20:34:22.105Z,5.75
2023-05-02T20:39:14.323Z,5.70
2023-05-02T20:44:06.385Z,5.87
2023-05-02T20:48:59.416Z,6.20
2023-05-02T20:53:51.436Z,5.82
2023-05-02T20:58:43.354Z,5.53
2023-05-02T21:03:39.238Z,5.50
2023-05-02T21:08:31.069Z,5.33
2023-05-02T21:13:22.952Z,5.80
2023-05-02T21:18:14.705Z,5.37
2023-05-02T21:23:06.576Z,5.38
2023-05-02T21:27:58.425Z,5.10
2023-05-02T21:32:50.524Z,6.35
2023-05-02T21:37:42.280Z,6.00
2023-05-02T21:42:34.552Z,7.45
2023-05-02T21:47:26.350Z,7.80
2023-05-02T21:52:18.059Z,7.05
2023-05-02T21:57:09.730Z,6.20
2023-05-02T22:02:01.438Z,6.53
2023-05-02T22:06:53.468Z,5.78
2023-05-02T22:11:45.207Z,5.60
2023-05-02T22:16:37.582Z,5.03
2023-05-02T22:21:29.984Z,5.47
2023-05-02T22:26:22.872Z,4.95
2023-05-02T22:31:15.619Z,5.57
2023-05-02T22:36:08.712Z,5.10
2023-05-02T22:41:00.909Z,5.73
2023-05-02T22:45:52.921Z,5.40
2023-05-02T22:50:48.725Z,5.63
2023-05-02T22:55:40.514Z,5.73
2023-05-02T23:13:26.866Z,3.83
2023-05-02T23:18:24.918Z,4.37
2023-05-02T23:23:19.498Z,4.23
2023-05-02T23:28:12.691Z,5.13
2023-05-02T23:33:05.126Z,4.53
2023-05-02T23:38:00.978Z,4.60
2023-05-02T23:42:54.289Z,4.30
2023-05-02T23:47:47.045Z,4.20
2023-05-02T23:52:40.063Z,4.30
2023-05-02T23:57:31.958Z,4.23
